Time;durP1;ratioP1;P1;durP2;ratioP2;P2;SDS_P1;SDS_P2;PMS_P1;PMS_P2;Temp;Humidity;BMP_temperature;BMP_pressure;BME280_temperature;BME280_humidity;BME280_pressure;Samples;Min_cycle;Max_cycle;Signal;HPM_P1;HPM_P2
2022/01/15 00:00:19;;;;;;;27.20;17.47;;;;;;;;;;5052696;28;20219;-63
2022/01/15 00:02:47;;;;;;;24.93;16.33;;;;;;;;;;5076465;28;20254;-63
2022/01/15 00:05:14;;;;;;;28.67;16.63;;;;;;;;;;5060734;28;20769;-61
2022/01/15 00:07:47;;;;;;;28.90;16.77;;;;;;;;;;5066177;28;20245;-63
2022/01/15 00:10:16;;;;;;;25.57;15.77;;;;;;;;;;5054655;28;20225;-62
2022/01/15 00:12:43;;;;;;;26.43;15.83;;;;;;;;;;5084605;27;20249;-61
2022/01/15 00:15:16;;;;;;;26.90;16.33;;;;;;;;;;5086474;27;20260;-63
2022/01/15 00:20:14;;;;;;;24.67;15.20;;;;;;;;;;5064374;28;20233;-63
2022/01/15 00:22:42;;;;;;;26.10;17.67;;;;;;;;;;5084521;28;20205;-61
2022/01/15 00:25:10;;;;;;;30.40;18.80;;;;;;;;;;5061603;28;20215;-62
2022/01/15 00:27:38;;;;;;;24.53;16.23;;;;;;;;;;5060574;28;20720;-61
2022/01/15 00:30:05;;;;;;;23.57;16.33;;;;;;;;;;5090732;27;20215;-63
2022/01/15 00:32:33;;;;;;;25.23;16.43;;;;;;;;;;5050118;28;20274;-63
2022/01/15 00:35:00;;;;;;;24.70;16.07;;;;;;;;;;5056239;28;20857;-63
2022/01/15 00:37:32;;;;;;;23.87;16.40;;;;;;;;;;5083862;27;20221;-63
2022/01/15 00:40:00;;;;;;;25.93;15.97;;;;;;;;;;5086795;27;20206;-63
2022/01/15 00:42:28;;;;;;;24.80;15.90;;;;;;;;;;5089293;27;20671;-62
2022/01/15 00:44:57;;;;;;;23.37;14.37;;;;;;;;;;5083108;27;20580;-62
2022/01/15 00:47:28;;;;;;;22.83;14.83;;;;;;;;;;5058044;28;20592;-64
2022/01/15 00:49:55;;;;;;;22.27;14.10;;;;;;;;;;5057891;28;20239;-63
2022/01/15 00:52:23;;;;;;;21.47;15.17;;;;;;;;;;5072704;28;20208;-62
2022/01/15 00:54:50;;;;;;;22.67;14.73;;;;;;;;;;5056561;28;20204;-62
2022/01/15 00:57:18;;;;;;;22.23;15.10;;;;;;;;;;5055986;28;20228;-63
2022/01/15 00:59:45;;;;;;;23.37;15.13;;;;;;;;;;5087916;27;20204;-63
2022/01/15 01:02:13;;;;;;;22.27;14.67;;;;;;;;;;5055936;28;20201;-63
2022/01/15 01:04:40;;;;;;;21.37;13.90;;;;;;;;;;5083307;28;20213;-63
2022/01/15 01:07:08;;;;;;;22.07;14.63;;;;;;;;;;5068552;28;20218;-62
2022/01/15 01:12:30;;;;;;;17.97;12.23;;;;;;;;;;5073341;28;20290;-63
2022/01/15 01:21:48;;;;;;;14.47;10.33;;;;;;;;;;5065187;28;20603;-63
2022/01/15 01:23:18;;;;;;;16.90;11.30;;;;;;;;;;5056562;28;20209;-63
2022/01/15 01:25:49;;;;;;;16.90;11.83;;;;;;;;;;5056212;28;20228;-63
2022/01/15 01:28:26;;;;;;;14.00;9.87;;;;;;;;;;5092292;27;20273;-62
2022/01/15 01:31:19;;;;;;;13.27;10.33;;;;;;;;;;5052758;28;20212;-63
2022/01/15 01:33:49;;;;;;;13.27;10.03;;;;;;;;;;5068383;28;20219;-63
2022/01/15 01:36:34;;;;;;;12.33;9.33;;;;;;;;;;5081644;27;21722;-63
2022/01/15 01:39:06;;;;;;;13.10;9.60;;;;;;;;;;5064068;28;20221;-63
2022/01/15 01:41:37;;;;;;;13.90;9.60;;;;;;;;;;5051775;28;20206;-62
2022/01/15 01:44:04;;;;;;;12.67;9.67;;;;;;;;;;5054867;28;20201;-62
2022/01/15 01:46:45;;;;;;;13.23;9.47;;;;;;;;;;5087063;27;20701;-62
2022/01/15 01:49:14;;;;;;;13.97;9.27;;;;;;;;;;5053746;28;20228;-62
2022/01/15 01:51:43;;;;;;;14.20;9.30;;;;;;;;;;5066436;28;20319;-63
2022/01/15 01:54:11;;;;;;;12.17;8.80;;;;;;;;;;5066883;28;20224;-63
2022/01/15 01:56:40;;;;;;;12.30;9.27;;;;;;;;;;5060119;28;20225;-63
2022/01/15 01:59:08;;;;;;;11.43;8.57;;;;;;;;;;5055496;28;20582;-62
2022/01/15 02:01:35;;;;;;;11.93;8.57;;;;;;;;;;5055116;28;20691;-63
2022/01/15 02:04:03;;;;;;;13.37;9.33;;;;;;;;;;5073744;28;20217;-63
2022/01/15 02:06:31;;;;;;;13.17;9.07;;;;;;;;;;5068798;28;20212;-61
2022/01/15 02:08:59;;;;;;;13.30;9.77;;;;;;;;;;5061505;28;20231;-61
2022/01/15 02:11:26;;;;;;;13.37;9.03;;;;;;;;;;5066688;28;20212;-62
2022/01/15 02:13:54;;;;;;;14.20;9.47;;;;;;;;;;5057993;28;20227;-61
2022/01/15 02:16:22;;;;;;;13.80;9.50;;;;;;;;;;5054807;28;20216;-63
2022/01/15 02:18:53;;;;;;;13.73;10.77;;;;;;;;;;5053628;28;20236;-62
2022/01/15 02:23:50;;;;;;;15.10;8.53;;;;;;;;;;5067169;28;20205;-61
2022/01/15 02:26:19;;;;;;;12.97;8.73;;;;;;;;;;5047273;28;20321;-61
2022/01/15 02:29:07;;;;;;;11.57;8.33;;;;;;;;;;5082229;28;20947;-62
2022/01/15 02:31:35;;;;;;;10.10;8.80;;;;;;;;;;5053014;28;20219;-62
2022/01/15 02:34:04;;;;;;;9.53;8.53;;;;;;;;;;5080128;28;20343;-61
2022/01/15 02:36:33;;;;;;;10.87;9.53;;;;;;;;;;5063525;28;20314;-63
2022/01/15 02:39:04;;;;;;;15.47;10.07;;;;;;;;;;5067824;28;20327;-61
2022/01/15 02:41:33;;;;;;;11.27;10.10;;;;;;;;;;5070744;28;20201;-61
2022/01/15 02:44:02;;;;;;;12.17;9.23;;;;;;;;;;5062716;28;20570;-63
2022/01/15 02:48:59;;;;;;;11.93;8.87;;;;;;;;;;5082515;28;20217;-62
2022/01/15 02:51:33;;;;;;;10.67;8.10;;;;;;;;;;5064352;28;20213;-62
2022/01/15 02:54:01;;;;;;;9.83;7.47;;;;;;;;;;5084470;28;20230;-63
2022/01/15 02:56:35;;;;;;;8.50;6.67;;;;;;;;;;5086383;28;20805;-63
2022/01/15 02:59:03;;;;;;;10.90;7.83;;;;;;;;;;5064492;28;20591;-60
2022/01/15 03:01:31;;;;;;;10.33;8.10;;;;;;;;;;5052774;28;20205;-62
2022/01/15 03:03:59;;;;;;;10.63;7.40;;;;;;;;;;5049506;28;20218;-63
2022/01/15 03:06:27;;;;;;;10.50;7.07;;;;;;;;;;5047872;28;20270;-62
2022/01/15 03:08:54;;;;;;;9.60;6.70;;;;;;;;;;5051491;28;20368;-63
2022/01/15 03:11:22;;;;;;;10.73;7.33;;;;;;;;;;5054428;28;20214;-63
2022/01/15 03:13:50;;;;;;;9.10;7.37;;;;;;;;;;5058853;28;20214;-63
2022/01/15 03:16:19;;;;;;;12.03;7.60;;;;;;;;;;5076566;28;20743;-62
2022/01/15 03:18:47;;;;;;;9.80;7.33;;;;;;;;;;5072152;28;20231;-61
2022/01/15 03:21:15;;;;;;;11.23;8.20;;;;;;;;;;5057209;28;20215;-63
2022/01/15 03:23:42;;;;;;;11.00;7.63;;;;;;;;;;5084164;28;20215;-63
2022/01/15 03:26:13;;;;;;;10.60;7.40;;;;;;;;;;5050426;28;20232;-63
2022/01/15 03:28:41;;;;;;;10.37;7.20;;;;;;;;;;5066429;28;20311;-62
2022/01/15 03:31:09;;;;;;;16.63;9.83;;;;;;;;;;5049497;28;20207;-62
2022/01/15 03:33:36;;;;;;;15.47;9.10;;;;;;;;;;5060956;28;20213;-63
2022/01/15 03:36:06;;;;;;;12.10;8.13;;;;;;;;;;5076956;28;20202;-63
2022/01/15 03:38:34;;;;;;;9.77;6.73;;;;;;;;;;5056120;28;20948;-63
2022/01/15 03:41:02;;;;;;;10.07;6.60;;;;;;;;;;5069802;28;20551;-63
2022/01/15 03:43:29;;;;;;;10.77;7.63;;;;;;;;;;5054731;28;20289;-62
2022/01/15 03:45:56;;;;;;;12.63;7.40;;;;;;;;;;5058830;28;20205;-62
2022/01/15 03:48:25;;;;;;;13.00;8.13;;;;;;;;;;5072002;28;20345;-62
2022/01/15 03:50:52;;;;;;;23.47;13.53;;;;;;;;;;5050811;28;20215;-63
2022/01/15 03:53:21;;;;;;;28.30;14.63;;;;;;;;;;5073603;28;20684;-62
2022/01/15 03:55:49;;;;;;;19.23;11.93;;;;;;;;;;5073062;28;20219;-62
2022/01/15 03:58:17;;;;;;;13.87;9.00;;;;;;;;;;5051936;28;20235;-62
2022/01/15 04:00:44;;;;;;;13.17;8.80;;;;;;;;;;5059154;28;20202;-63
2022/01/15 04:03:12;;;;;;;8.80;7.50;;;;;;;;;;5056838;28;20207;-61
2022/01/15 04:05:39;;;;;;;14.43;9.37;;;;;;;;;;5066286;28;20262;-61
2022/01/15 04:08:07;;;;;;;12.40;8.70;;;;;;;;;;5055167;28;20236;-63
2022/01/15 04:10:35;;;;;;;13.43;9.67;;;;;;;;;;5056691;28;20672;-63
2022/01/15 04:13:03;;;;;;;18.57;9.97;;;;;;;;;;5066038;28;20233;-63
2022/01/15 04:15:30;;;;;;;18.40;10.40;;;;;;;;;;5048946;28;20227;-63
2022/01/15 04:17:58;;;;;;;16.07;9.10;;;;;;;;;;5052199;28;20228;-63
2022/01/15 04:20:26;;;;;;;18.73;10.50;;;;;;;;;;5087186;27;20288;-61
2022/01/15 04:22:54;;;;;;;18.43;10.17;;;;;;;;;;5061897;28;20672;-61
2022/01/15 04:25:21;;;;;;;18.70;10.00;;;;;;;;;;5065217;28;20209;-63
2022/01/15 04:27:50;;;;;;;14.03;8.87;;;;;;;;;;5088202;27;20228;-61
2022/01/15 04:30:18;;;;;;;18.20;10.40;;;;;;;;;;5081469;27;20217;-62
2022/01/15 04:32:45;;;;;;;14.67;9.60;;;;;;;;;;5081132;27;20674;-61
2022/01/15 04:35:14;;;;;;;13.70;9.10;;;;;;;;;;5053281;28;20211;-63
2022/01/15 04:37:45;;;;;;;13.23;9.20;;;;;;;;;;5088708;27;20642;-62
2022/01/15 04:40:15;;;;;;;12.30;9.10;;;;;;;;;;5074538;28;20204;-63
2022/01/15 04:42:43;;;;;;;11.77;8.70;;;;;;;;;;5091434;27;20200;-62
2022/01/15 04:45:10;;;;;;;12.97;8.50;;;;;;;;;;5059684;28;20826;-62
2022/01/15 04:47:38;;;;;;;11.87;8.27;;;;;;;;;;5062886;28;20211;-62
2022/01/15 04:50:08;;;;;;;13.70;9.23;;;;;;;;;;5053661;28;20248;-61
2022/01/15 04:52:36;;;;;;;12.57;8.13;;;;;;;;;;5054695;28;20202;-63
2022/01/15 04:55:05;;;;;;;12.03;8.90;;;;;;;;;;5054803;28;20216;-61
2022/01/15 04:57:32;;;;;;;10.73;8.10;;;;;;;;;;5066506;28;20244;-62
2022/01/15 04:59:59;;;;;;;14.23;8.43;;;;;;;;;;5052439;28;20675;-62
2022/01/15 05:02:27;;;;;;;11.70;7.67;;;;;;;;;;5085699;27;21432;-63
2022/01/15 05:04:54;;;;;;;9.90;7.07;;;;;;;;;;5057846;28;20298;-62
2022/01/15 05:07:22;;;;;;;9.67;7.83;;;;;;;;;;5052513;28;20212;-61
2022/01/15 05:09:50;;;;;;;9.80;7.20;;;;;;;;;;5054412;28;20217;-63
2022/01/15 05:14:54;;;;;;;14.90;8.80;;;;;;;;;;5071211;28;20208;-61
2022/01/15 05:17:21;;;;;;;13.90;10.00;;;;;;;;;;5054309;28;20232;-62
2022/01/15 05:19:49;;;;;;;11.47;7.90;;;;;;;;;;5055747;28;20686;-61
2022/01/15 05:22:16;;;;;;;9.53;7.17;;;;;;;;;;5056648;28;20250;-63
2022/01/15 05:24:44;;;;;;;12.03;7.83;;;;;;;;;;5055198;28;20224;-62
2022/01/15 05:27:11;;;;;;;13.43;9.60;;;;;;;;;;5073599;28;20219;-63
2022/01/15 05:29:38;;;;;;;14.37;8.70;;;;;;;;;;5052714;28;20231;-63
2022/01/15 05:32:06;;;;;;;13.83;8.97;;;;;;;;;;5056349;28;20215;-61
2022/01/15 05:34:38;;;;;;;12.33;9.37;;;;;;;;;;5055732;28;20230;-63
2022/01/15 05:37:06;;;;;;;12.97;9.57;;;;;;;;;;5072229;28;20229;-62
2022/01/15 05:39:33;;;;;;;11.10;8.33;;;;;;;;;;5052113;28;20220;-61
2022/01/15 05:42:01;;;;;;;16.23;9.77;;;;;;;;;;5058499;28;20207;-61
2022/01/15 05:44:28;;;;;;;16.07;9.90;;;;;;;;;;5082150;27;20261;-63
2022/01/15 05:46:56;;;;;;;12.80;9.90;;;;;;;;;;5080664;28;20210;-61
2022/01/15 05:49:23;;;;;;;14.07;9.87;;;;;;;;;;5055300;28;20781;-63
2022/01/15 05:51:51;;;;;;;12.27;9.73;;;;;;;;;;5067087;28;20203;-62
2022/01/15 05:54:19;;;;;;;14.53;9.30;;;;;;;;;;5084877;27;20804;-61
2022/01/15 05:56:50;;;;;;;13.13;9.00;;;;;;;;;;5064258;28;20217;-61
2022/01/15 05:59:17;;;;;;;12.70;8.73;;;;;;;;;;5050537;28;20255;-61
2022/01/15 06:01:45;;;;;;;13.20;9.23;;;;;;;;;;5050936;28;20203;-61
2022/01/15 06:04:12;;;;;;;11.23;7.97;;;;;;;;;;5062532;28;20216;-62
2022/01/15 06:06:40;;;;;;;9.70;7.63;;;;;;;;;;5048567;28;20211;-63
2022/01/15 06:09:07;;;;;;;11.97;7.60;;;;;;;;;;5084583;27;20226;-63
2022/01/15 06:11:35;;;;;;;12.97;8.20;;;;;;;;;;5062376;28;20208;-63
2022/01/15 06:14:02;;;;;;;11.40;8.10;;;;;;;;;;5069751;28;20677;-61
2022/01/15 06:16:30;;;;;;;11.63;7.33;;;;;;;;;;5054465;28;20581;-62
2022/01/15 06:18:57;;;;;;;13.17;9.00;;;;;;;;;;5054887;28;20288;-62
2022/01/15 06:21:25;;;;;;;10.43;7.90;;;;;;;;;;5047869;28;21216;-61
2022/01/15 06:23:52;;;;;;;10.53;7.80;;;;;;;;;;5051560;28;20208;-62
2022/01/15 06:26:19;;;;;;;11.03;7.33;;;;;;;;;;5052674;28;20803;-61
2022/01/15 06:28:46;;;;;;;9.90;7.57;;;;;;;;;;5051099;28;20304;-62
2022/01/15 06:31:15;;;;;;;13.67;7.83;;;;;;;;;;5064305;28;20267;-63
2022/01/15 06:33:43;;;;;;;11.80;7.83;;;;;;;;;;5052034;28;20539;-62
2022/01/15 06:36:11;;;;;;;11.53;8.07;;;;;;;;;;5074493;28;20679;-62
2022/01/15 06:38:39;;;;;;;10.33;6.70;;;;;;;;;;5053076;28;20238;-62
2022/01/15 06:41:06;;;;;;;8.40;6.40;;;;;;;;;;5082184;28;20200;-62
2022/01/15 06:43:33;;;;;;;10.97;7.53;;;;;;;;;;5051610;28;20216;-63
2022/01/15 06:46:01;;;;;;;10.90;7.07;;;;;;;;;;5057512;28;20696;-63
2022/01/15 06:48:30;;;;;;;12.43;8.23;;;;;;;;;;5085102;28;20238;-63
2022/01/15 06:50:57;;;;;;;11.37;8.30;;;;;;;;;;5048228;28;20210;-63
2022/01/15 06:53:25;;;;;;;12.47;8.83;;;;;;;;;;5049034;28;20237;-61
2022/01/15 06:55:53;;;;;;;12.50;9.33;;;;;;;;;;5078495;28;20215;-61
2022/01/15 06:58:24;;;;;;;12.33;9.63;;;;;;;;;;5038652;28;20250;-62
2022/01/15 07:00:52;;;;;;;13.87;11.00;;;;;;;;;;5061256;28;20199;-61
2022/01/15 07:03:19;;;;;;;13.67;11.20;;;;;;;;;;5044838;28;20301;-62
2022/01/15 07:05:47;;;;;;;14.60;11.10;;;;;;;;;;5060641;28;20301;-62
2022/01/15 07:08:14;;;;;;;15.37;10.73;;;;;;;;;;5054233;28;20249;-63
2022/01/15 07:10:43;;;;;;;14.60;10.57;;;;;;;;;;5051497;28;20215;-61
2022/01/15 07:13:11;;;;;;;17.83;11.97;;;;;;;;;;5054598;28;20255;-62
2022/01/15 07:15:38;;;;;;;23.73;13.43;;;;;;;;;;5084283;28;20209;-63
2022/01/15 07:18:06;;;;;;;33.37;21.07;;;;;;;;;;5052909;28;20231;-62
2022/01/15 07:20:33;;;;;;;36.00;21.47;;;;;;;;;;5071766;28;20745;-61
2022/01/15 07:23:00;;;;;;;62.47;34.67;;;;;;;;;;5046260;28;20207;-61
2022/01/15 07:25:28;;;;;;;48.40;30.47;;;;;;;;;;5055157;28;20212;-62
2022/01/15 07:27:55;;;;;;;45.87;29.33;;;;;;;;;;5049680;28;20237;-62
2022/01/15 07:30:24;;;;;;;37.93;22.97;;;;;;;;;;5069239;28;20212;-63
2022/01/15 07:32:51;;;;;;;37.67;22.33;;;;;;;;;;5053392;28;20219;-63
2022/01/15 07:35:19;;;;;;;33.33;20.93;;;;;;;;;;5068057;28;20289;-62
2022/01/15 07:37:46;;;;;;;31.67;19.87;;;;;;;;;;5048674;28;20235;-63
2022/01/15 07:40:14;;;;;;;27.30;17.17;;;;;;;;;;5068635;28;20274;-62
2022/01/15 07:42:41;;;;;;;36.00;21.80;;;;;;;;;;5068464;28;20222;-63
2022/01/15 07:45:10;;;;;;;37.30;23.63;;;;;;;;;;5054197;28;20257;-61
2022/01/15 07:47:38;;;;;;;39.13;25.60;;;;;;;;;;5068234;28;20204;-62
2022/01/15 07:50:08;;;;;;;33.03;22.40;;;;;;;;;;5064508;28;20215;-62
2022/01/15 07:52:35;;;;;;;33.23;21.30;;;;;;;;;;5081951;27;20211;-62
2022/01/15 07:55:03;;;;;;;33.60;21.33;;;;;;;;;;5046997;28;20216;-63
2022/01/15 07:57:51;;;;;;;31.37;21.43;;;;;;;;;;5068206;28;20227;-61
2022/01/15 08:00:19;;;;;;;32.13;20.00;;;;;;;;;;5044868;28;20236;-62
2022/01/15 08:02:46;;;;;;;31.13;18.80;;;;;;;;;;5047375;28;20706;-61
2022/01/15 08:05:14;;;;;;;25.10;16.23;;;;;;;;;;5047079;28;20306;-61
2022/01/15 08:07:42;;;;;;;23.07;14.47;;;;;;;;;;5052721;28;20222;-61
2022/01/15 08:10:09;;;;;;;25.13;15.57;;;;;;;;;;5076270;27;20215;-63
2022/01/15 08:12:48;;;;;;;25.27;16.47;;;;;;;;;;5059428;28;20274;-63
2022/01/15 08:15:16;;;;;;;25.27;17.10;;;;;;;;;;5069696;27;20215;-61
2022/01/15 08:17:44;;;;;;;26.30;17.30;;;;;;;;;;5078895;27;20720;-61
2022/01/15 08:20:12;;;;;;;22.60;15.73;;;;;;;;;;5055734;28;20286;-63
2022/01/15 08:22:40;;;;;;;23.27;15.80;;;;;;;;;;5051214;28;20200;-62
2022/01/15 08:25:09;;;;;;;26.03;16.33;;;;;;;;;;5054475;28;20213;-62
2022/01/15 08:27:36;;;;;;;24.63;15.50;;;;;;;;;;5052781;28;20264;-61
2022/01/15 08:30:05;;;;;;;24.37;15.13;;;;;;;;;;5053938;28;20230;-62
2022/01/15 08:32:32;;;;;;;23.17;14.80;;;;;;;;;;5052266;28;20211;-63
2022/01/15 08:34:59;;;;;;;23.30;15.67;;;;;;;;;;5044207;28;20212;-62
2022/01/15 08:37:27;;;;;;;22.60;14.67;;;;;;;;;;5049608;28;20196;-62
2022/01/15 08:39:54;;;;;;;22.60;13.73;;;;;;;;;;5075967;27;20588;-62
2022/01/15 08:42:22;;;;;;;21.87;14.20;;;;;;;;;;5066813;28;20669;-64
2022/01/15 08:44:51;;;;;;;22.60;14.10;;;;;;;;;;5069051;28;20213;-63
2022/01/15 08:47:19;;;;;;;20.80;14.70;;;;;;;;;;5068684;28;20209;-62
2022/01/15 08:49:46;;;;;;;25.67;14.77;;;;;;;;;;5059459;28;20251;-61
2022/01/15 08:52:14;;;;;;;22.40;14.50;;;;;;;;;;5055677;28;20205;-63
2022/01/15 08:54:41;;;;;;;22.80;15.17;;;;;;;;;;5077810;28;20239;-63
2022/01/15 08:57:09;;;;;;;22.57;15.20;;;;;;;;;;5090157;28;20303;-63
2022/01/15 08:59:36;;;;;;;26.20;17.47;;;;;;;;;;5079166;28;20231;-62
2022/01/15 09:02:04;;;;;;;28.10;18.63;;;;;;;;;;5076919;28;20229;-62
2022/01/15 09:04:31;;;;;;;32.70;20.30;;;;;;;;;;5073533;28;20232;-62
2022/01/15 09:06:59;;;;;;;24.87;15.40;;;;;;;;;;5088032;28;20681;-62
2022/01/15 09:09:26;;;;;;;25.30;16.87;;;;;;;;;;5114524;27;20485;-63
2022/01/15 09:11:54;;;;;;;23.70;16.60;;;;;;;;;;5080433;28;20208;-61
2022/01/15 09:14:21;;;;;;;27.23;15.47;;;;;;;;;;5068409;28;20614;-63
2022/01/15 09:16:48;;;;;;;24.43;16.37;;;;;;;;;;5067726;28;20208;-62
2022/01/15 09:19:16;;;;;;;30.10;17.30;;;;;;;;;;5059594;28;20221;-61
2022/01/15 09:21:43;;;;;;;30.67;18.23;;;;;;;;;;5093399;27;20197;-63
2022/01/15 09:24:11;;;;;;;26.67;17.80;;;;;;;;;;5072167;28;20197;-62
2022/01/15 09:32:03;;;;;;;29.83;18.50;;;;;;;;;;5076257;28;20205;-62
2022/01/15 09:34:32;;;;;;;26.93;18.50;;;;;;;;;;5065485;28;20225;-64
2022/01/15 09:36:59;;;;;;;31.37;19.17;;;;;;;;;;5052195;28;20204;-63
2022/01/15 09:39:27;;;;;;;25.57;17.50;;;;;;;;;;5063817;28;20229;-62
2022/01/15 09:41:55;;;;;;;28.60;18.27;;;;;;;;;;5065043;28;20210;-63
2022/01/15 09:44:23;;;;;;;28.63;18.27;;;;;;;;;;5082761;28;20254;-63
2022/01/15 09:46:51;;;;;;;26.97;19.00;;;;;;;;;;5062927;28;20197;-63
2022/01/15 09:49:19;;;;;;;30.57;19.43;;;;;;;;;;5071899;28;20282;-62
2022/01/15 09:51:47;;;;;;;24.27;17.43;;;;;;;;;;5107297;28;20210;-63
2022/01/15 09:54:15;;;;;;;29.17;17.70;;;;;;;;;;5067911;28;20211;-61
2022/01/15 09:56:43;;;;;;;25.90;18.90;;;;;;;;;;5073303;28;20236;-62
2022/01/15 09:59:11;;;;;;;28.53;17.93;;;;;;;;;;5069994;28;20233;-61
2022/01/15 10:01:38;;;;;;;29.90;19.50;;;;;;;;;;5076290;28;20252;-61
2022/01/15 10:04:06;;;;;;;34.03;21.67;;;;;;;;;;5066997;28;20218;-63
2022/01/15 10:06:33;;;;;;;29.90;20.47;;;;;;;;;;5060846;28;20261;-61
2022/01/15 10:09:08;;;;;;;24.20;16.47;;;;;;;;;;5077600;28;20247;-60
2022/01/15 10:11:47;;;;;;;19.90;13.27;;;;;;;;;;5068587;28;20238;-61
2022/01/15 10:14:34;;;;;;;21.43;12.90;;;;;;;;;;5066439;28;20591;-62
2022/01/15 10:17:03;;;;;;;15.87;11.70;;;;;;;;;;5065956;28;20303;-63
2022/01/15 10:19:36;;;;;;;15.23;11.40;;;;;;;;;;5052360;28;20266;-61
2022/01/15 10:22:17;;;;;;;14.37;11.10;;;;;;;;;;5052832;28;20205;-61
2022/01/15 10:25:11;;;;;;;17.00;10.50;;;;;;;;;;5064295;28;20212;-61
2022/01/15 10:27:40;;;;;;;13.43;11.23;;;;;;;;;;5050935;28;20204;-62
2022/01/15 10:30:15;;;;;;;15.47;11.50;;;;;;;;;;5056859;28;20201;-63
2022/01/15 10:32:55;;;;;;;14.07;10.53;;;;;;;;;;5065554;28;21446;-62
2022/01/15 10:35:23;;;;;;;13.80;10.60;;;;;;;;;;5063128;28;20254;-61
2022/01/15 10:37:53;;;;;;;14.53;10.87;;;;;;;;;;5060355;28;20224;-61
2022/01/15 10:40:25;;;;;;;13.40;10.70;;;;;;;;;;5072414;28;20197;-61
2022/01/15 10:42:55;;;;;;;14.40;11.10;;;;;;;;;;5058750;28;20296;-63
2022/01/15 10:45:23;;;;;;;15.50;11.20;;;;;;;;;;5079497;28;20212;-61
2022/01/15 10:47:54;;;;;;;16.57;10.63;;;;;;;;;;5093569;28;20227;-61
2022/01/15 10:50:22;;;;;;;14.37;10.43;;;;;;;;;;5080477;28;20204;-61
2022/01/15 10:52:50;;;;;;;12.70;9.87;;;;;;;;;;5092485;27;20213;-61
2022/01/15 10:55:23;;;;;;;18.83;11.13;;;;;;;;;;5091386;27;20256;-61
2022/01/15 10:57:54;;;;;;;15.53;12.70;;;;;;;;;;5083127;27;20426;-61
2022/01/15 11:00:23;;;;;;;15.07;11.83;;;;;;;;;;5081109;27;20561;-61
2022/01/15 11:02:57;;;;;;;16.17;10.77;;;;;;;;;;5062465;28;20241;-61
2022/01/15 11:05:29;;;;;;;15.67;10.63;;;;;;;;;;5069570;28;20587;-61
2022/01/15 11:08:17;;;;;;;17.20;11.60;;;;;;;;;;5036029;28;20240;-61
2022/01/15 11:10:46;;;;;;;19.00;11.93;;;;;;;;;;5026422;28;20216;-61
2022/01/15 11:13:15;;;;;;;17.77;12.37;;;;;;;;;;5039433;28;20221;-61
2022/01/15 11:15:44;;;;;;;21.33;12.87;;;;;;;;;;5055388;28;20425;-61
2022/01/15 11:18:18;;;;;;;19.23;12.33;;;;;;;;;;5048472;28;20231;-62
2022/01/15 11:20:46;;;;;;;15.53;10.70;;;;;;;;;;5070605;27;20201;-61
2022/01/15 11:23:14;;;;;;;11.73;8.90;;;;;;;;;;5063168;28;20213;-63
2022/01/15 11:25:44;;;;;;;13.47;9.57;;;;;;;;;;5054342;28;20276;-61
2022/01/15 11:28:12;;;;;;;13.43;9.70;;;;;;;;;;5057188;28;20220;-61
2022/01/15 11:30:40;;;;;;;18.73;12.37;;;;;;;;;;5066299;28;20202;-61
2022/01/15 11:33:08;;;;;;;15.87;11.90;;;;;;;;;;5055069;28;20206;-63
2022/01/15 11:35:40;;;;;;;14.00;10.77;;;;;;;;;;5072814;28;20213;-61
2022/01/15 11:38:08;;;;;;;15.53;10.97;;;;;;;;;;5056767;28;20218;-61
2022/01/15 11:40:35;;;;;;;12.93;9.17;;;;;;;;;;5073503;28;20205;-63
2022/01/15 11:43:21;;;;;;;10.67;8.40;;;;;;;;;;5065177;28;20608;-61
2022/01/15 11:45:49;;;;;;;11.57;8.63;;;;;;;;;;5060186;28;20208;-61
2022/01/15 11:48:21;;;;;;;9.30;7.87;;;;;;;;;;5059365;28;20315;-63
2022/01/15 11:51:06;;;;;;;9.77;7.37;;;;;;;;;;5059799;28;20616;-62
2022/01/15 11:53:47;;;;;;;9.60;7.03;;;;;;;;;;5046537;28;20205;-62
2022/01/15 11:56:18;;;;;;;8.43;6.50;;;;;;;;;;5059243;28;20212;-62
2022/01/15 11:58:46;;;;;;;10.07;7.70;;;;;;;;;;5065002;28;20229;-62
2022/01/15 12:01:32;;;;;;;10.80;8.13;;;;;;;;;;5096645;27;20205;-62
2022/01/15 12:04:19;;;;;;;9.80;7.57;;;;;;;;;;5086448;28;20205;-61
2022/01/15 12:07:13;;;;;;;12.47;8.63;;;;;;;;;;5061249;28;20224;-63
2022/01/15 12:09:44;;;;;;;12.90;7.80;;;;;;;;;;5052688;28;20229;-61
2022/01/15 12:12:18;;;;;;;14.27;10.50;;;;;;;;;;5062439;28;20205;-63
2022/01/15 12:14:48;;;;;;;16.03;11.63;;;;;;;;;;5057126;28;20219;-63
2022/01/15 12:17:36;;;;;;;18.57;12.83;;;;;;;;;;5058625;28;20202;-62
2022/01/15 12:20:08;;;;;;;12.93;9.00;;;;;;;;;;5057955;28;20232;-62
2022/01/15 12:22:43;;;;;;;11.43;8.77;;;;;;;;;;5065018;28;20216;-63
2022/01/15 12:25:12;;;;;;;9.83;7.60;;;;;;;;;;5083950;27;20694;-62
2022/01/15 12:27:40;;;;;;;11.63;8.50;;;;;;;;;;5062277;28;20316;-62
2022/01/15 12:30:13;;;;;;;13.33;9.10;;;;;;;;;;5052422;28;20312;-62
2022/01/15 12:32:42;;;;;;;13.93;9.97;;;;;;;;;;5050574;28;20690;-62
2022/01/15 12:35:18;;;;;;;26.40;12.37;;;;;;;;;;5066066;28;23719;-62
2022/01/15 12:38:07;;;;;;;16.30;11.30;;;;;;;;;;5060855;28;20213;-62
2022/01/15 12:40:37;;;;;;;14.27;10.37;;;;;;;;;;5065015;28;20225;-63
2022/01/15 12:43:25;;;;;;;14.83;10.47;;;;;;;;;;5070149;28;20264;-62
2022/01/15 12:45:54;;;;;;;15.97;11.27;;;;;;;;;;5050199;28;20285;-63
2022/01/15 12:48:23;;;;;;;15.23;9.77;;;;;;;;;;5096999;27;20221;-63
2022/01/15 12:50:52;;;;;;;15.33;10.53;;;;;;;;;;5076975;28;20209;-62
2022/01/15 12:53:23;;;;;;;15.43;11.03;;;;;;;;;;5074146;28;20197;-62
2022/01/15 12:55:51;;;;;;;14.57;10.10;;;;;;;;;;5057241;28;20239;-62
2022/01/15 12:58:20;;;;;;;13.73;9.47;;;;;;;;;;5067710;28;20535;-61
2022/01/15 13:00:48;;;;;;;11.13;9.13;;;;;;;;;;5047908;28;20279;-61
2022/01/15 13:03:18;;;;;;;11.70;8.53;;;;;;;;;;5049165;28;20330;-61
2022/01/15 13:05:48;;;;;;;12.43;8.57;;;;;;;;;;5059654;28;20622;-61
2022/01/15 13:08:16;;;;;;;9.33;7.80;;;;;;;;;;5058404;28;20226;-62
2022/01/15 13:10:51;;;;;;;9.97;7.53;;;;;;;;;;5053093;28;20212;-61
2022/01/15 13:13:23;;;;;;;11.27;8.10;;;;;;;;;;5060084;28;20224;-62
2022/01/15 13:15:58;;;;;;;9.70;7.17;;;;;;;;;;5055204;28;20298;-63
2022/01/15 13:18:28;;;;;;;8.93;6.80;;;;;;;;;;5087476;27;20325;-63
2022/01/15 13:20:57;;;;;;;11.23;7.53;;;;;;;;;;5087293;27;20607;-61
2022/01/15 13:23:34;;;;;;;9.57;7.67;;;;;;;;;;5061167;28;20664;-60
2022/01/15 13:26:01;;;;;;;8.63;6.23;;;;;;;;;;5049831;28;20213;-61
2022/01/15 13:28:29;;;;;;;8.47;6.30;;;;;;;;;;5064508;28;20298;-61
2022/01/15 13:30:57;;;;;;;7.87;6.30;;;;;;;;;;5059724;28;20208;-61
2022/01/15 13:33:38;;;;;;;8.10;6.47;;;;;;;;;;5054853;28;20209;-61
2022/01/15 13:36:07;;;;;;;9.17;6.90;;;;;;;;;;5054463;28;20286;-61
2022/01/15 13:38:36;;;;;;;9.17;6.90;;;;;;;;;;5040827;28;20278;-61
2022/01/15 13:41:29;;;;;;;7.70;6.20;;;;;;;;;;5062444;28;21180;-61
2022/01/15 13:43:57;;;;;;;9.97;6.57;;;;;;;;;;5081319;27;20233;-62
2022/01/15 13:46:34;;;;;;;9.23;6.53;;;;;;;;;;5083282;27;20321;-63
2022/01/15 13:49:10;;;;;;;10.63;7.10;;;;;;;;;;5049020;28;20284;-62
2022/01/15 13:54:30;;;;;;;9.10;7.80;;;;;;;;;;5077778;28;20261;-62
2022/01/15 13:57:10;;;;;;;11.93;7.80;;;;;;;;;;5055361;28;20559;-62
2022/01/15 13:59:40;;;;;;;11.53;8.73;;;;;;;;;;5058264;28;20233;-62
2022/01/15 14:02:07;;;;;;;11.50;8.17;;;;;;;;;;5064709;28;20213;-62
2022/01/15 14:04:36;;;;;;;11.53;8.47;;;;;;;;;;5089821;27;20212;-63
2022/01/15 14:07:08;;;;;;;11.70;8.43;;;;;;;;;;5065458;28;20217;-62
2022/01/15 14:09:36;;;;;;;11.60;8.03;;;;;;;;;;5069335;28;20256;-63
2022/01/15 14:12:12;;;;;;;10.03;6.67;;;;;;;;;;5055686;28;20213;-63
2022/01/15 14:14:53;;;;;;;9.87;7.07;;;;;;;;;;5061973;28;20212;-63
2022/01/15 14:17:24;;;;;;;9.97;7.50;;;;;;;;;;5047666;28;20208;-63
2022/01/15 14:22:27;;;;;;;10.57;7.20;;;;;;;;;;5064360;28;20197;-62
2022/01/15 14:25:10;;;;;;;10.13;7.63;;;;;;;;;;5051167;28;20213;-62
2022/01/15 14:27:38;;;;;;;7.97;6.70;;;;;;;;;;5061459;28;20296;-62
2022/01/15 14:30:06;;;;;;;8.27;7.00;;;;;;;;;;5079040;28;20198;-62
2022/01/15 14:32:34;;;;;;;8.93;6.77;;;;;;;;;;5061176;28;20317;-62
2022/01/15 14:35:01;;;;;;;6.77;5.63;;;;;;;;;;5051368;28;20206;-62
2022/01/15 14:37:29;;;;;;;8.10;5.40;;;;;;;;;;5057876;28;20558;-62
2022/01/15 14:39:56;;;;;;;5.90;4.60;;;;;;;;;;5080387;28;20235;-64
2022/01/15 14:42:26;;;;;;;5.90;4.70;;;;;;;;;;5091171;28;20590;-61
2022/01/15 14:44:56;;;;;;;7.23;5.37;;;;;;;;;;5101882;28;20204;-63
2022/01/15 14:47:24;;;;;;;7.93;5.30;;;;;;;;;;5058488;28;20209;-61
2022/01/15 14:49:52;;;;;;;7.53;6.17;;;;;;;;;;5062034;28;20236;-62
2022/01/15 14:52:19;;;;;;;6.47;5.27;;;;;;;;;;5053680;28;20209;-62
2022/01/15 14:54:47;;;;;;;6.43;5.33;;;;;;;;;;5056160;28;20196;-61
2022/01/15 14:57:14;;;;;;;7.23;5.87;;;;;;;;;;5068016;28;20296;-61
2022/01/15 14:59:41;;;;;;;12.03;6.10;;;;;;;;;;5071647;28;20241;-60
2022/01/15 15:02:09;;;;;;;7.47;6.10;;;;;;;;;;5040004;28;20221;-62
2022/01/15 15:04:37;;;;;;;7.83;5.90;;;;;;;;;;5073103;28;20197;-62
2022/01/15 15:07:05;;;;;;;9.03;6.27;;;;;;;;;;5036880;28;20267;-62
2022/01/15 15:09:32;;;;;;;8.67;6.90;;;;;;;;;;5055789;28;20710;-62